createdAt,value
2018-09-12T00:01:38.383Z,19.76
2018-09-12T00:04:08.184Z,19.71
2018-09-12T00:06:37.908Z,19.74
2018-09-12T00:09:10.898Z,19.77
2018-09-12T00:11:44.626Z,19.71
2018-09-12T00:14:14.324Z,19.69
2018-09-12T00:16:44.066Z,19.59
2018-09-12T00:19:13.724Z,19.58
2018-09-12T00:21:43.435Z,19.45
2018-09-12T00:24:13.125Z,19.55
2018-09-12T00:26:42.831Z,19.48
2018-09-12T00:29:13.194Z,19.39
2018-09-12T00:31:43.002Z,19.37
2018-09-12T00:34:12.730Z,19.32
2018-09-12T00:36:42.424Z,19.36
2018-09-12T00:39:12.991Z,19.34
2018-09-12T00:41:43.160Z,19.41
2018-09-12T00:44:13.139Z,19.35
2018-09-12T00:46:42.916Z,19.41
2018-09-12T00:49:12.585Z,19.34
2018-09-12T00:51:42.306Z,19.42
2018-09-12T00:54:12.316Z,19.43
2018-09-12T00:56:42.013Z,19.43
2018-09-12T00:59:11.636Z,19.32
2018-09-12T01:01:41.409Z,19.37
2018-09-12T01:04:11.072Z,19.36
2018-09-12T01:06:40.759Z,19.37
2018-09-12T01:09:10.487Z,19.42
2018-09-12T01:11:40.279Z,19.40
2018-09-12T01:14:09.982Z,19.31
2018-09-12T01:16:39.714Z,19.30
2018-09-12T01:19:09.441Z,19.31
2018-09-12T01:21:39.157Z,19.38
2018-09-12T01:24:08.823Z,19.30
2018-09-12T01:26:38.760Z,19.32
2018-09-12T01:29:08.553Z,19.38
2018-09-12T01:31:38.334Z,19.44
2018-09-12T01:34:08.179Z,19.42
2018-09-12T01:36:38.258Z,19.42
2018-09-12T01:39:09.596Z,19.56
2018-09-12T01:41:39.562Z,19.48
2018-09-12T01:44:09.685Z,19.50
2018-09-12T01:46:39.704Z,19.54
2018-09-12T01:49:12.087Z,19.52
2018-09-12T01:51:42.300Z,19.54
2018-09-12T01:54:12.057Z,19.51
2018-09-12T01:56:42.002Z,19.51
2018-09-12T01:59:12.031Z,19.56
2018-09-12T02:01:42.324Z,19.48
2018-09-12T02:04:11.951Z,19.49
2018-09-12T02:06:41.797Z,19.48
2018-09-12T02:09:13.597Z,19.47
2018-09-12T02:11:43.373Z,19.49
2018-09-12T02:14:13.082Z,19.54
2018-09-12T02:16:42.898Z,19.53
2018-09-12T02:19:12.612Z,19.53
2018-09-12T02:21:42.377Z,19.48
2018-09-12T02:24:12.120Z,19.42
2018-09-12T02:26:41.936Z,19.40
2018-09-12T02:29:12.125Z,19.37
2018-09-12T02:31:41.987Z,19.40
2018-09-12T02:34:11.817Z,19.31
2018-09-12T02:36:41.699Z,19.27
2018-09-12T02:39:16.848Z,19.26
2018-09-12T02:41:46.968Z,19.24
2018-09-12T02:44:17.102Z,19.26
2018-09-12T02:46:47.285Z,19.23
2018-09-12T02:49:17.518Z,19.20
2018-09-12T02:51:47.833Z,19.16
2018-09-12T02:54:18.084Z,19.09
2018-09-12T02:56:47.886Z,19.10
2018-09-12T02:59:17.780Z,19.11
2018-09-12T03:01:47.470Z,19.08
2018-09-12T03:04:17.179Z,19.03
2018-09-12T03:06:46.995Z,19.06
2018-09-12T03:09:17.123Z,19.15
2018-09-12T03:11:47.167Z,19.07
2018-09-12T03:14:17.100Z,19.14
2018-09-12T03:16:51.362Z,19.11
2018-09-12T03:19:21.108Z,19.15
2018-09-12T03:21:51.136Z,19.18
2018-09-12T03:24:21.260Z,19.20
2018-09-12T03:26:51.628Z,19.17
2018-09-12T03:29:21.553Z,19.19
2018-09-12T03:31:51.731Z,19.12
2018-09-12T03:34:22.146Z,19.11
2018-09-12T03:36:51.895Z,19.13
2018-09-12T03:39:21.610Z,19.14
2018-09-12T03:41:51.380Z,19.12
2018-09-12T03:44:21.009Z,19.13
2018-09-12T03:46:50.805Z,19.10
2018-09-12T03:49:20.400Z,19.09
2018-09-12T03:51:54.413Z,19.08
2018-09-12T03:54:24.029Z,19.11
2018-09-12T03:56:53.685Z,19.12
2018-09-12T03:59:23.338Z,19.13
2018-09-12T04:01:53.284Z,19.09
2018-09-12T04:04:22.964Z,19.08
2018-09-12T04:06:53.607Z,19.04
2018-09-12T04:09:23.407Z,19.00
2018-09-12T04:11:53.031Z,19.04
2018-09-12T04:14:22.675Z,19.00
2018-09-12T04:16:53.079Z,18.88
2018-09-12T04:19:22.755Z,18.82
2018-09-12T04:21:52.507Z,18.72
2018-09-12T04:24:22.260Z,18.76
2018-09-12T04:26:52.181Z,18.70
2018-09-12T04:29:21.813Z,18.65
2018-09-12T04:31:51.742Z,18.69
2018-09-12T04:34:21.456Z,18.59
2018-09-12T04:36:51.654Z,18.57
2018-09-12T04:39:21.461Z,18.50
2018-09-12T04:41:51.108Z,18.53
2018-09-12T04:44:21.528Z,18.48
2018-09-12T04:46:51.237Z,18.44
2018-09-12T04:49:20.908Z,18.44
2018-09-12T04:51:50.677Z,18.41
2018-09-12T04:54:20.326Z,18.37
2018-09-12T04:56:50.074Z,18.36
2018-09-12T04:59:19.796Z,18.33
2018-09-12T05:01:49.478Z,18.39
2018-09-12T05:04:19.208Z,18.37
2018-09-12T05:06:48.919Z,18.37
2018-09-12T05:09:18.652Z,18.45
2018-09-12T05:11:48.286Z,18.38
2018-09-12T05:14:18.520Z,18.40
2018-09-12T05:16:48.277Z,18.39
2018-09-12T05:19:19.591Z,18.40
2018-09-12T05:21:49.494Z,18.30
2018-09-12T05:24:19.282Z,18.38
2018-09-12T05:26:48.985Z,18.36
2018-09-12T05:29:18.743Z,18.48
2018-09-12T05:31:48.835Z,18.33
2018-09-12T05:34:18.625Z,18.50
2018-09-12T05:36:48.343Z,18.53
2018-09-12T05:39:17.959Z,18.60
2018-09-12T05:41:47.596Z,18.40
2018-09-12T05:44:17.299Z,18.69
2018-09-12T05:46:46.969Z,18.65
2018-09-12T05:49:16.651Z,18.53
2018-09-12T05:51:46.286Z,18.52
2018-09-12T05:54:16.032Z,18.69
2018-09-12T05:56:45.684Z,18.72
2018-09-12T05:59:15.512Z,18.90
2018-09-12T06:01:45.382Z,18.74
2018-09-12T06:04:15.115Z,18.96
2018-09-12T06:06:44.893Z,18.69
2018-09-12T06:09:14.476Z,19.08
2018-09-12T06:11:44.085Z,18.77
2018-09-12T06:14:13.861Z,18.98
2018-09-12T06:16:43.428Z,18.91
2018-09-12T06:19:13.061Z,18.55
2018-09-12T06:21:42.683Z,19.00
2018-09-12T06:24:12.342Z,19.78
2018-09-12T06:26:41.960Z,19.03
2018-09-12T06:29:11.586Z,19.03
2018-09-12T06:31:41.335Z,19.23
2018-09-12T06:34:11.044Z,19.35
2018-09-12T06:36:40.925Z,19.14
2018-09-12T06:39:12.448Z,19.60
2018-09-12T06:41:42.259Z,19.40
2018-09-12T06:44:12.345Z,19.81
2018-09-12T06:46:42.904Z,19.63
2018-09-12T06:49:17.212Z,20.16
2018-09-12T06:51:46.971Z,20.42
2018-09-12T06:54:16.784Z,20.47
2018-09-12T06:56:46.670Z,19.72
2018-09-12T06:59:16.477Z,20.02
2018-09-12T07:01:47.787Z,20.60
2018-09-12T07:04:22.180Z,19.61
2018-09-12T07:06:51.980Z,19.77
2018-09-12T07:09:21.884Z,20.39
2018-09-12T07:11:51.638Z,20.51
2018-09-12T07:16:50.803Z,20.06
2018-09-12T07:19:20.767Z,20.45
2018-09-12T07:21:50.668Z,20.63
2018-09-12T07:24:20.687Z,20.36
2018-09-12T07:26:50.386Z,20.26
2018-09-12T07:29:20.905Z,20.47
2018-09-12T07:31:50.586Z,20.70
2018-09-12T07:34:20.394Z,20.67
2018-09-12T07:36:50.063Z,20.85
2018-09-12T07:39:19.804Z,21.66
2018-09-12T07:41:49.595Z,21.40
2018-09-12T07:44:19.243Z,20.78
2018-09-12T07:46:52.975Z,21.00
2018-09-12T07:49:22.846Z,20.89
2018-09-12T07:51:52.646Z,21.39
2018-09-12T07:54:22.428Z,22.08
2018-09-12T07:56:52.366Z,21.23
2018-09-12T07:59:22.464Z,21.64
2018-09-12T08:01:52.179Z,22.21
2018-09-12T08:04:21.933Z,21.70
2018-09-12T08:06:51.613Z,22.04
2018-09-12T08:09:21.448Z,21.38
2018-09-12T08:11:51.283Z,21.57
2018-09-12T08:14:20.993Z,21.71
2018-09-12T08:16:50.758Z,21.14
2018-09-12T08:19:20.466Z,21.42
2018-09-12T08:21:50.374Z,21.43
2018-09-12T08:24:20.488Z,21.66
2018-09-12T08:26:50.650Z,21.60
2018-09-12T08:29:20.533Z,21.92
2018-09-12T08:31:50.548Z,21.87
2018-09-12T08:34:20.368Z,21.94
2018-09-12T08:36:50.449Z,22.37
2018-09-12T08:39:20.398Z,21.92
2018-09-12T08:41:51.011Z,21.60
2018-09-12T08:44:21.101Z,21.46
2018-09-12T08:46:51.389Z,21.69
2018-09-12T08:49:21.592Z,21.53
2018-09-12T08:51:51.660Z,21.68
2018-09-12T08:54:21.523Z,21.66
2018-09-12T08:56:51.991Z,22.04
2018-09-12T08:59:21.793Z,21.70
2018-09-12T09:01:51.867Z,21.86
2018-09-12T09:04:22.009Z,22.01
2018-09-12T09:06:51.764Z,22.03
2018-09-12T09:09:21.831Z,22.41
2018-09-12T09:11:51.778Z,22.99
2018-09-12T09:14:22.128Z,22.75
2018-09-12T09:16:53.038Z,22.76
2018-09-12T09:19:22.732Z,22.41
2018-09-12T09:21:52.787Z,22.30
2018-09-12T09:24:23.189Z,22.77
2018-09-12T09:26:53.410Z,22.63
2018-09-12T09:29:23.360Z,22.45
2018-09-12T09:31:53.612Z,22.31
2018-09-12T09:34:24.071Z,22.28
2018-09-12T09:36:55.729Z,22.80
2018-09-12T09:39:28.448Z,22.84
2018-09-12T09:41:58.713Z,23.20
2018-09-12T09:44:31.148Z,23.47
2018-09-12T09:47:02.594Z,23.09
2018-09-12T09:49:33.131Z,23.16
2018-09-12T09:52:03.853Z,22.84
2018-09-12T09:54:33.722Z,23.31
2018-09-12T09:57:03.629Z,22.91
2018-09-12T09:59:33.937Z,22.37
2018-09-12T10:02:10.858Z,22.41
2018-09-12T10:04:49.872Z,22.52
2018-09-12T10:07:31.224Z,22.51
2018-09-12T10:10:08.359Z,22.60
2018-09-12T10:15:22.314Z,22.07
2018-09-12T10:17:56.273Z,22.31
2018-09-12T10:20:26.018Z,22.02
2018-09-12T10:23:09.977Z,22.10
2018-09-12T10:25:42.145Z,22.02
2018-09-12T10:28:13.533Z,21.92
2018-09-12T10:30:44.872Z,21.76
2018-09-12T10:33:16.097Z,21.60
2018-09-12T10:35:46.273Z,21.91
2018-09-12T10:38:21.343Z,21.72
2018-09-12T10:40:56.944Z,21.70
2018-09-12T10:43:28.391Z,21.72
2018-09-12T10:45:59.313Z,22.21
2018-09-12T10:48:30.523Z,22.51
2018-09-12T10:51:04.883Z,22.94
2018-09-12T10:53:39.454Z,23.15
2018-09-12T10:56:15.726Z,23.24
2018-09-12T10:58:47.585Z,22.96
2018-09-12T11:01:19.041Z,23.75
2018-09-12T11:03:55.919Z,23.34
2018-09-12T11:06:26.340Z,22.71
2018-09-12T11:11:29.923Z,22.71
2018-09-12T11:14:01.097Z,23.71
2018-09-12T11:16:35.674Z,23.34
2018-09-12T11:19:07.900Z,23.11
2018-09-12T11:21:42.964Z,22.76
2018-09-12T11:24:13.607Z,22.64
2018-09-12T11:26:43.926Z,22.30
2018-09-12T11:29:14.095Z,20.72
2018-09-12T11:31:46.938Z,20.51
2018-09-12T11:34:16.943Z,19.98
2018-09-12T11:39:38.108Z,19.06
2018-09-12T11:42:12.124Z,18.71
2018-09-12T11:44:45.221Z,18.53
2018-09-12T11:49:44.032Z,18.54
2018-09-12T11:52:14.762Z,18.72
2018-09-12T11:54:49.510Z,18.32
2018-09-12T11:57:19.608Z,18.23
2018-09-12T11:59:49.654Z,17.72
2018-09-12T12:02:21.036Z,18.37
2018-09-12T12:04:55.188Z,18.36
2018-09-12T12:07:25.342Z,18.08
2018-09-12T12:09:59.975Z,18.20
2018-09-12T12:15:25.645Z,18.71
2018-09-12T12:18:01.818Z,18.54
2018-09-12T12:20:34.662Z,17.97
2018-09-12T12:25:33.021Z,18.32
2018-09-12T12:28:03.168Z,18.84
2018-09-12T12:30:33.602Z,18.93
2018-09-12T12:33:03.937Z,18.73
2018-09-12T12:35:34.745Z,18.31
2018-09-12T12:38:04.625Z,18.30
2018-09-12T12:40:34.392Z,18.41
2018-09-12T12:43:04.306Z,18.17
2018-09-12T12:45:34.500Z,18.32
2018-09-12T12:48:04.349Z,17.83
2018-09-12T12:50:34.607Z,18.10
2018-09-12T12:53:08.874Z,17.65
2018-09-12T12:55:38.652Z,17.68
2018-09-12T12:58:08.495Z,17.79
2018-09-12T13:00:38.397Z,17.47
2018-09-12T13:03:08.153Z,17.98
2018-09-12T13:05:42.383Z,17.26
2018-09-12T13:08:12.197Z,17.51
2018-09-12T13:10:41.900Z,17.52
2018-09-12T13:13:11.600Z,17.54
2018-09-12T13:15:41.386Z,17.14
2018-09-12T13:18:11.121Z,17.29
2018-09-12T13:20:40.900Z,17.38
2018-09-12T13:23:12.093Z,17.33
2018-09-12T13:25:41.980Z,16.61
2018-09-12T13:28:11.785Z,16.76
2018-09-12T13:30:41.813Z,16.50
2018-09-12T13:33:11.661Z,16.60
2018-09-12T13:35:42.158Z,16.52
2018-09-12T13:38:11.949Z,16.82
2018-09-12T13:40:41.693Z,16.53
2018-09-12T13:43:11.666Z,16.55
2018-09-12T13:45:41.813Z,16.43
2018-09-12T13:48:12.031Z,16.66
2018-09-12T13:50:42.106Z,16.84
2018-09-12T13:53:12.172Z,16.40
2018-09-12T13:55:42.048Z,16.50
2018-09-12T13:58:12.105Z,16.28
2018-09-12T14:00:42.300Z,16.49
2018-09-12T14:03:12.121Z,16.45
2018-09-12T14:05:41.849Z,16.36
2018-09-12T14:08:11.669Z,16.44
2018-09-12T14:10:41.667Z,16.38
2018-09-12T14:13:12.727Z,16.26
2018-09-12T14:15:42.613Z,16.50
2018-09-12T14:18:13.658Z,16.44
2018-09-12T14:20:43.584Z,16.26
2018-09-12T14:23:13.387Z,16.08
2018-09-12T14:25:43.204Z,16.25
2018-09-12T14:28:13.007Z,16.48
2018-09-12T14:30:42.815Z,16.00
2018-09-12T14:33:12.679Z,15.92
2018-09-12T14:35:42.826Z,16.06
2018-09-12T14:38:12.863Z,15.74
2018-09-12T14:40:43.206Z,15.93
2018-09-12T14:43:13.173Z,16.03
2018-09-12T14:45:43.550Z,15.83
2018-09-12T14:48:13.525Z,15.91
2018-09-12T14:50:43.806Z,16.02
2018-09-12T14:53:18.677Z,16.04
2018-09-12T14:55:48.636Z,15.79
2018-09-12T14:58:18.365Z,15.66
2018-09-12T15:00:48.358Z,15.99
2018-09-12T15:03:18.261Z,15.72
2018-09-12T15:05:52.610Z,16.06
2018-09-12T15:08:22.741Z,15.89
2018-09-12T15:10:52.520Z,15.79
2018-09-12T15:13:22.358Z,15.63
2018-09-12T15:15:52.192Z,15.60
2018-09-12T15:18:21.983Z,15.43
2018-09-12T15:20:58.511Z,15.45
2018-09-12T15:23:28.397Z,15.53
2018-09-12T15:25:58.100Z,15.59
2018-09-12T15:28:27.966Z,15.53
2018-09-12T15:30:57.693Z,15.61
2018-09-12T15:33:27.420Z,15.72
2018-09-12T15:35:57.350Z,15.53
2018-09-12T15:38:27.041Z,15.74
2018-09-12T15:40:57.415Z,15.84
2018-09-12T15:43:27.144Z,15.91
2018-09-12T15:45:56.909Z,15.80
2018-09-12T15:48:26.711Z,15.44
2018-09-12T15:50:56.478Z,15.63
2018-09-12T15:53:26.235Z,16.01
2018-09-12T15:55:55.951Z,15.70
2018-09-12T15:58:25.907Z,15.60
2018-09-12T16:00:56.060Z,15.74
2018-09-12T16:03:25.929Z,15.76
2018-09-12T16:05:55.796Z,15.85
2018-09-12T16:08:25.581Z,15.83
2018-09-12T16:10:55.321Z,15.62
2018-09-12T16:13:27.937Z,15.31
2018-09-12T16:15:57.731Z,15.24
2018-09-12T16:18:27.517Z,15.40
2018-09-12T16:20:57.269Z,15.24
2018-09-12T16:23:27.060Z,15.32
2018-09-12T16:25:56.847Z,15.23
2018-09-12T16:28:26.739Z,15.27
2018-09-12T16:30:56.528Z,15.34
2018-09-12T16:33:26.295Z,15.38
2018-09-12T16:35:56.025Z,15.19
2018-09-12T16:38:25.676Z,15.46
2018-09-12T16:40:55.437Z,15.39
2018-09-12T16:43:25.236Z,15.35
2018-09-12T16:45:55.026Z,15.51
2018-09-12T16:48:26.195Z,15.36
2018-09-12T16:50:55.937Z,15.42
2018-09-12T16:53:25.749Z,15.38
2018-09-12T16:55:55.516Z,15.48
2018-09-12T16:58:25.379Z,15.44
2018-09-12T17:00:55.316Z,15.42
2018-09-12T17:03:25.069Z,15.45
2018-09-12T17:05:55.248Z,15.37
2018-09-12T17:08:25.151Z,15.29
2018-09-12T17:10:55.211Z,15.44
2018-09-12T17:13:24.973Z,15.36
2018-09-12T17:15:55.052Z,15.31
2018-09-12T17:18:24.783Z,15.48
2018-09-12T17:20:54.702Z,15.53
2018-09-12T17:23:24.483Z,15.54
2018-09-12T17:25:54.673Z,15.46
2018-09-12T17:28:24.405Z,15.41
2018-09-12T17:30:54.531Z,15.27
2018-09-12T17:33:24.441Z,15.32
2018-09-12T17:35:54.431Z,15.45
2018-09-12T17:38:24.173Z,15.38
2018-09-12T17:41:00.581Z,15.47
2018-09-12T17:43:30.283Z,15.42
2018-09-12T17:45:59.994Z,15.43
2018-09-12T17:48:29.845Z,15.24
2018-09-12T17:50:59.508Z,15.33
2018-09-12T17:53:29.450Z,15.24
2018-09-12T17:55:59.147Z,15.22
2018-09-12T17:58:29.218Z,15.16
2018-09-12T18:00:59.252Z,15.08
2018-09-12T18:03:29.014Z,15.13
2018-09-12T18:05:59.151Z,15.10
2018-09-12T18:08:28.813Z,15.09
2018-09-12T18:11:02.046Z,15.12
2018-09-12T18:13:31.744Z,15.10
2018-09-12T18:16:01.520Z,15.07
2018-09-12T18:18:31.752Z,15.19
2018-09-12T18:21:01.492Z,15.02
2018-09-12T18:23:31.207Z,14.97
2018-09-12T18:26:01.057Z,15.02
2018-09-12T18:28:30.870Z,14.96
2018-09-12T18:31:01.009Z,14.89
2018-09-12T18:33:30.845Z,14.83
2018-09-12T18:36:01.081Z,14.89
2018-09-12T18:38:31.061Z,14.95
2018-09-12T18:41:01.040Z,14.95
2018-09-12T18:43:31.044Z,14.91
2018-09-12T18:46:01.085Z,14.93
2018-09-12T18:48:31.094Z,14.87
2018-09-12T18:51:07.707Z,14.98
2018-09-12T18:53:38.473Z,14.98
2018-09-12T18:56:08.776Z,15.02
2018-09-12T18:58:39.047Z,15.01
2018-09-12T19:01:08.849Z,14.93
2018-09-12T19:03:39.043Z,14.99
2018-09-12T19:06:09.753Z,14.94
2018-09-12T19:08:39.651Z,14.87
2018-09-12T19:11:10.562Z,14.84
2018-09-12T19:13:41.320Z,14.86
2018-09-12T19:16:11.308Z,14.86
2018-09-12T19:18:41.229Z,14.95
2018-09-12T19:21:11.285Z,14.97
2018-09-12T19:23:41.119Z,14.91
2018-09-12T19:26:11.067Z,14.97
2018-09-12T19:28:45.377Z,15.09
2018-09-12T19:31:15.504Z,15.01
2018-09-12T19:33:45.546Z,14.94
2018-09-12T19:36:15.754Z,14.89
2018-09-12T19:38:45.559Z,14.91
2018-09-12T19:41:15.523Z,14.94
2018-09-12T19:43:46.252Z,15.00
2018-09-12T19:46:16.710Z,15.02
2018-09-12T19:48:46.696Z,14.96
2018-09-12T19:51:17.595Z,14.92
2018-09-12T19:53:47.571Z,14.89
2018-09-12T19:56:18.144Z,14.87
2018-09-12T19:58:48.449Z,14.92
2018-09-12T20:01:18.503Z,14.80
2018-09-12T20:03:48.419Z,14.87
2018-09-12T20:06:18.273Z,14.92
2018-09-12T20:08:48.089Z,14.91
2018-09-12T20:11:18.909Z,15.00
2018-09-12T20:13:48.896Z,14.94
2018-09-12T20:16:18.748Z,14.76
2018-09-12T20:18:49.136Z,14.73
2018-09-12T20:21:19.702Z,14.51
2018-09-12T20:23:49.682Z,14.61
2018-09-12T20:26:19.473Z,14.72
2018-09-12T20:28:53.542Z,14.62
2018-09-12T20:31:23.776Z,14.42
2018-09-12T20:33:55.484Z,14.44
2018-09-12T20:36:30.771Z,14.54
2018-09-12T20:39:00.717Z,14.43
2018-09-12T20:41:34.872Z,14.24
2018-09-12T20:44:10.659Z,14.30
2018-09-12T20:46:40.843Z,14.37
2018-09-12T20:49:11.853Z,14.17
2018-09-12T20:51:44.633Z,14.16
2018-09-12T20:54:16.584Z,14.17
2018-09-12T20:56:51.031Z,14.18
2018-09-12T20:59:20.834Z,14.13
2018-09-12T21:01:50.649Z,14.18
2018-09-12T21:04:20.811Z,14.12
2018-09-12T21:06:55.000Z,14.20
2018-09-12T21:09:24.873Z,14.04
2018-09-12T21:11:54.648Z,14.12
2018-09-12T21:14:24.452Z,14.10
2018-09-12T21:16:54.395Z,14.04
2018-09-12T21:19:24.263Z,14.10
2018-09-12T21:21:54.211Z,14.09
2018-09-12T21:24:24.149Z,14.07
2018-09-12T21:26:54.083Z,14.09
2018-09-12T21:29:24.017Z,14.08
2018-09-12T21:31:53.985Z,14.10
2018-09-12T21:34:23.861Z,14.09
2018-09-12T21:36:53.576Z,14.02
2018-09-12T21:39:23.554Z,14.01
2018-09-12T21:41:53.452Z,13.99
2018-09-12T21:44:23.406Z,13.97
2018-09-12T21:46:53.340Z,14.03
2018-09-12T21:49:24.054Z,13.97
2018-09-12T21:51:54.021Z,13.99
2018-09-12T21:54:23.820Z,14.05
2018-09-12T21:56:53.889Z,14.03
2018-09-12T21:59:23.925Z,14.13
2018-09-12T22:01:53.862Z,14.17
2018-09-12T22:04:23.794Z,14.12
2018-09-12T22:06:58.110Z,14.14
2018-09-12T22:09:27.919Z,14.10
2018-09-12T22:11:57.823Z,14.09
2018-09-12T22:14:27.611Z,14.03
2018-09-12T22:16:57.578Z,14.02
2018-09-12T22:19:27.387Z,13.99
2018-09-12T22:21:57.277Z,14.05
2018-09-12T22:24:27.303Z,13.95
2018-09-12T22:26:57.187Z,13.88
2018-09-12T22:29:27.499Z,13.78
2018-09-12T22:31:57.349Z,13.77
2018-09-12T22:34:27.204Z,13.84
2018-09-12T22:36:57.159Z,13.84
2018-09-12T22:39:27.236Z,13.85
2018-09-12T22:41:57.143Z,13.93
2018-09-12T22:44:27.099Z,13.92
2018-09-12T22:46:56.902Z,13.85
2018-09-12T22:49:26.844Z,13.82
2018-09-12T22:51:56.750Z,13.77
2018-09-12T22:54:26.847Z,13.79
2018-09-12T22:56:56.664Z,13.81
2018-09-12T22:59:26.433Z,13.83
2018-09-12T23:01:56.320Z,13.88
2018-09-12T23:04:26.126Z,13.79
2018-09-12T23:06:55.936Z,13.62
2018-09-12T23:09:25.703Z,13.74
2018-09-12T23:11:55.709Z,13.65
2018-09-12T23:14:25.986Z,13.54
2018-09-12T23:16:55.793Z,13.50
2018-09-12T23:19:25.730Z,13.54
2018-09-12T23:21:55.586Z,13.54
2018-09-12T23:24:25.740Z,13.54
2018-09-12T23:26:55.681Z,13.49
2018-09-12T23:29:26.072Z,13.48
2018-09-12T23:31:55.823Z,13.48
2018-09-12T23:34:25.622Z,13.43
2018-09-12T23:36:55.385Z,13.46
2018-09-12T23:39:25.222Z,13.48
2018-09-12T23:41:55.016Z,13.44
2018-09-12T23:44:24.873Z,13.48
2018-09-12T23:46:54.614Z,13.44
2018-09-12T23:49:24.523Z,13.35
2018-09-12T23:51:55.991Z,13.38
2018-09-12T23:54:25.953Z,13.39
2018-09-12T23:56:55.781Z,13.40
2018-09-12T23:59:25.669Z,13.45
